sensor_id;sensor_type;location;lat;lon;timestamp;temperature;humidity
24144;DHT22;12307;50.828;6.080;2023-12-20T00:02:16;18.10;63.10
24144;DHT22;12307;50.828;6.080;2023-12-20T00:04:42;18.10;63.10
24144;DHT22;12307;50.828;6.080;2023-12-20T00:07:08;18.10;63.10
24144;DHT22;12307;50.828;6.080;2023-12-20T00:09:34;18.10;63.10
24144;DHT22;12307;50.828;6.080;2023-12-20T00:12:01;18.00;63.00
24144;DHT22;12307;50.828;6.080;2023-12-20T00:14:26;18.10;63.10
24144;DHT22;12307;50.828;6.080;2023-12-20T00:16:52;18.00;63.00
24144;DHT22;12307;50.828;6.080;2023-12-20T00:19:18;18.10;63.10
24144;DHT22;12307;50.828;6.080;2023-12-20T00:21:44;18.00;63.00
24144;DHT22;12307;50.828;6.080;2023-12-20T00:24:10;18.10;63.10
24144;DHT22;12307;50.828;6.080;2023-12-20T00:26:35;18.00;63.00
24144;DHT22;12307;50.828;6.080;2023-12-20T00:29:02;18.00;63.00
24144;DHT22;12307;50.828;6.080;2023-12-20T00:31:28;18.10;63.00
24144;DHT22;12307;50.828;6.080;2023-12-20T00:33:54;18.00;63.00
24144;DHT22;12307;50.828;6.080;2023-12-20T00:36:20;18.10;63.00
24144;DHT22;12307;50.828;6.080;2023-12-20T00:38:45;18.10;63.00
24144;DHT22;12307;50.828;6.080;2023-12-20T00:41:11;18.10;63.00
24144;DHT22;12307;50.828;6.080;2023-12-20T00:43:37;18.00;63.00
24144;DHT22;12307;50.828;6.080;2023-12-20T00:46:05;18.00;63.00
24144;DHT22;12307;50.828;6.080;2023-12-20T00:48:31;18.00;63.00
24144;DHT22;12307;50.828;6.080;2023-12-20T00:50:57;18.00;63.00
24144;DHT22;12307;50.828;6.080;2023-12-20T00:53:23;18.00;63.00
24144;DHT22;12307;50.828;6.080;2023-12-20T00:55:48;18.00;63.00
24144;DHT22;12307;50.828;6.080;2023-12-20T00:58:15;18.00;63.00
24144;DHT22;12307;50.828;6.080;2023-12-20T01:00:41;18.00;63.00
24144;DHT22;12307;50.828;6.080;2023-12-20T01:03:09;18.00;63.00
24144;DHT22;12307;50.828;6.080;2023-12-20T01:05:35;18.00;63.00
24144;DHT22;12307;50.828;6.080;2023-12-20T01:08:01;18.00;63.00
24144;DHT22;12307;50.828;6.080;2023-12-20T01:10:28;18.00;62.90
24144;DHT22;12307;50.828;6.080;2023-12-20T01:12:54;18.00;62.90
24144;DHT22;12307;50.828;6.080;2023-12-20T01:15:20;18.00;62.80
24144;DHT22;12307;50.828;6.080;2023-12-20T01:17:46;18.00;62.80
24144;DHT22;12307;50.828;6.080;2023-12-20T01:20:14;18.00;62.80
24144;DHT22;12307;50.828;6.080;2023-12-20T01:22:39;18.00;62.80
24144;DHT22;12307;50.828;6.080;2023-12-20T01:25:05;18.00;62.80
24144;DHT22;12307;50.828;6.080;2023-12-20T01:27:32;18.00;62.80
24144;DHT22;12307;50.828;6.080;2023-12-20T01:29:58;18.00;62.80
24144;DHT22;12307;50.828;6.080;2023-12-20T01:32:24;18.00;62.80
24144;DHT22;12307;50.828;6.080;2023-12-20T01:34:49;18.00;62.80
24144;DHT22;12307;50.828;6.080;2023-12-20T01:37:16;18.00;62.80
24144;DHT22;12307;50.828;6.080;2023-12-20T01:39:42;18.00;62.80
24144;DHT22;12307;50.828;6.080;2023-12-20T01:42:08;18.00;62.80
24144;DHT22;12307;50.828;6.080;2023-12-20T01:44:33;18.00;62.80
24144;DHT22;12307;50.828;6.080;2023-12-20T01:47:00;18.00;62.80
24144;DHT22;12307;50.828;6.080;2023-12-20T01:49:25;17.90;62.80
24144;DHT22;12307;50.828;6.080;2023-12-20T01:51:52;17.90;62.80
24144;DHT22;12307;50.828;6.080;2023-12-20T01:54:19;17.90;62.80
24144;DHT22;12307;50.828;6.080;2023-12-20T01:56:45;17.90;62.80
24144;DHT22;12307;50.828;6.080;2023-12-20T01:59:11;17.90;62.80
24144;DHT22;12307;50.828;6.080;2023-12-20T02:01:38;17.90;62.80
24144;DHT22;12307;50.828;6.080;2023-12-20T02:04:04;18.00;62.80
24144;DHT22;12307;50.828;6.080;2023-12-20T02:06:30;17.90;62.80
24144;DHT22;12307;50.828;6.080;2023-12-20T02:08:58;17.90;62.70
24144;DHT22;12307;50.828;6.080;2023-12-20T02:11:26;17.90;62.70
24144;DHT22;12307;50.828;6.080;2023-12-20T02:13:51;17.90;62.70
24144;DHT22;12307;50.828;6.080;2023-12-20T02:16:17;17.90;62.60
24144;DHT22;12307;50.828;6.080;2023-12-20T02:18:43;17.90;62.70
24144;DHT22;12307;50.828;6.080;2023-12-20T02:21:10;18.00;62.80
24144;DHT22;12307;50.828;6.080;2023-12-20T02:23:37;17.90;62.60
24144;DHT22;12307;50.828;6.080;2023-12-20T02:26:03;17.90;62.60
24144;DHT22;12307;50.828;6.080;2023-12-20T02:28:30;17.90;63.40
24144;DHT22;12307;50.828;6.080;2023-12-20T02:30:56;17.90;62.60
24144;DHT22;12307;50.828;6.080;2023-12-20T02:33:21;17.90;62.60
24144;DHT22;12307;50.828;6.080;2023-12-20T02:35:47;17.90;62.60
24144;DHT22;12307;50.828;6.080;2023-12-20T02:38:13;17.90;62.60
24144;DHT22;12307;50.828;6.080;2023-12-20T02:40:40;17.90;62.60
24144;DHT22;12307;50.828;6.080;2023-12-20T02:43:06;17.90;62.60
24144;DHT22;12307;50.828;6.080;2023-12-20T02:45:31;17.90;62.60
24144;DHT22;12307;50.828;6.080;2023-12-20T02:47:57;17.90;62.60
24144;DHT22;12307;50.828;6.080;2023-12-20T02:50:23;17.90;62.60
24144;DHT22;12307;50.828;6.080;2023-12-20T02:52:49;17.90;62.60
24144;DHT22;12307;50.828;6.080;2023-12-20T02:55:15;17.90;62.70
24144;DHT22;12307;50.828;6.080;2023-12-20T02:57:42;17.90;62.60
24144;DHT22;12307;50.828;6.080;2023-12-20T03:00:08;17.90;62.60
24144;DHT22;12307;50.828;6.080;2023-12-20T03:02:34;17.90;62.60
24144;DHT22;12307;50.828;6.080;2023-12-20T03:05:00;17.90;62.60
24144;DHT22;12307;50.828;6.080;2023-12-20T03:07:26;17.90;62.50
24144;DHT22;12307;50.828;6.080;2023-12-20T03:09:51;17.90;62.50
24144;DHT22;12307;50.828;6.080;2023-12-20T03:12:17;17.90;62.60
24144;DHT22;12307;50.828;6.080;2023-12-20T03:14:44;17.90;62.50
24144;DHT22;12307;50.828;6.080;2023-12-20T03:17:10;17.90;62.50
24144;DHT22;12307;50.828;6.080;2023-12-20T03:19:36;17.90;62.50
24144;DHT22;12307;50.828;6.080;2023-12-20T03:22:02;17.90;62.60
24144;DHT22;12307;50.828;6.080;2023-12-20T03:24:28;17.90;62.50
24144;DHT22;12307;50.828;6.080;2023-12-20T03:26:53;17.90;62.50
24144;DHT22;12307;50.828;6.080;2023-12-20T03:29:19;17.90;62.60
24144;DHT22;12307;50.828;6.080;2023-12-20T03:31:46;17.90;62.50
24144;DHT22;12307;50.828;6.080;2023-12-20T03:34:12;17.90;62.50
24144;DHT22;12307;50.828;6.080;2023-12-20T03:36:37;17.90;62.50
24144;DHT22;12307;50.828;6.080;2023-12-20T03:39:04;17.80;62.50
24144;DHT22;12307;50.828;6.080;2023-12-20T03:41:30;17.80;62.50
24144;DHT22;12307;50.828;6.080;2023-12-20T03:43:56;17.80;62.50
24144;DHT22;12307;50.828;6.080;2023-12-20T03:46:22;17.80;62.50
24144;DHT22;12307;50.828;6.080;2023-12-20T03:48:49;17.80;62.50
24144;DHT22;12307;50.828;6.080;2023-12-20T03:51:14;17.90;62.50
24144;DHT22;12307;50.828;6.080;2023-12-20T03:53:41;17.80;62.50
24144;DHT22;12307;50.828;6.080;2023-12-20T03:56:07;17.80;62.50
24144;DHT22;12307;50.828;6.080;2023-12-20T03:58:32;17.80;62.50
24144;DHT22;12307;50.828;6.080;2023-12-20T04:00:58;17.80;62.40
24144;DHT22;12307;50.828;6.080;2023-12-20T04:03:24;17.80;62.40
24144;DHT22;12307;50.828;6.080;2023-12-20T04:05:51;17.80;62.40
24144;DHT22;12307;50.828;6.080;2023-12-20T04:08:17;17.80;62.40
24144;DHT22;12307;50.828;6.080;2023-12-20T04:10:42;17.80;62.40
24144;DHT22;12307;50.828;6.080;2023-12-20T04:13:08;17.90;62.40
24144;DHT22;12307;50.828;6.080;2023-12-20T04:15:34;17.90;62.50
24144;DHT22;12307;50.828;6.080;2023-12-20T04:18:00;17.80;62.40
24144;DHT22;12307;50.828;6.080;2023-12-20T04:20:25;17.80;62.30
24144;DHT22;12307;50.828;6.080;2023-12-20T04:22:52;17.80;62.30
24144;DHT22;12307;50.828;6.080;2023-12-20T04:25:18;17.90;62.40
24144;DHT22;12307;50.828;6.080;2023-12-20T04:27:44;17.80;62.80
24144;DHT22;12307;50.828;6.080;2023-12-20T04:30:10;17.80;62.30
24144;DHT22;12307;50.828;6.080;2023-12-20T04:32:36;17.80;62.30
24144;DHT22;12307;50.828;6.080;2023-12-20T04:35:02;17.80;62.30
24144;DHT22;12307;50.828;6.080;2023-12-20T04:37:27;17.80;62.30
24144;DHT22;12307;50.828;6.080;2023-12-20T04:39:54;17.80;62.40
24144;DHT22;12307;50.828;6.080;2023-12-20T04:42:20;17.80;62.40
24144;DHT22;12307;50.828;6.080;2023-12-20T04:44:46;17.80;62.40
24144;DHT22;12307;50.828;6.080;2023-12-20T04:47:12;17.80;62.40
24144;DHT22;12307;50.828;6.080;2023-12-20T04:49:37;17.80;62.30
24144;DHT22;12307;50.828;6.080;2023-12-20T04:52:03;17.80;62.30
24144;DHT22;12307;50.828;6.080;2023-12-20T04:54:29;17.80;62.30
24144;DHT22;12307;50.828;6.080;2023-12-20T04:56:56;17.80;62.30
24144;DHT22;12307;50.828;6.080;2023-12-20T04:59:22;17.80;62.30
24144;DHT22;12307;50.828;6.080;2023-12-20T05:01:48;17.80;62.30
24144;DHT22;12307;50.828;6.080;2023-12-20T05:04:13;17.80;62.30
24144;DHT22;12307;50.828;6.080;2023-12-20T05:06:39;17.80;62.30
24144;DHT22;12307;50.828;6.080;2023-12-20T05:09:05;17.80;62.30
24144;DHT22;12307;50.828;6.080;2023-12-20T05:11:30;17.80;62.30
24144;DHT22;12307;50.828;6.080;2023-12-20T05:13:57;17.80;62.30
24144;DHT22;12307;50.828;6.080;2023-12-20T05:16:23;17.80;62.30
24144;DHT22;12307;50.828;6.080;2023-12-20T05:18:49;17.80;62.30
24144;DHT22;12307;50.828;6.080;2023-12-20T05:21:18;17.80;62.30
24144;DHT22;12307;50.828;6.080;2023-12-20T05:23:44;17.80;62.20
24144;DHT22;12307;50.828;6.080;2023-12-20T05:26:09;17.80;62.30
24144;DHT22;12307;50.828;6.080;2023-12-20T05:28:35;17.80;62.30
24144;DHT22;12307;50.828;6.080;2023-12-20T05:31:02;17.80;62.30
24144;DHT22;12307;50.828;6.080;2023-12-20T05:33:28;17.80;62.30
24144;DHT22;12307;50.828;6.080;2023-12-20T05:35:54;17.80;62.30
24144;DHT22;12307;50.828;6.080;2023-12-20T05:38:20;17.80;62.30
24144;DHT22;12307;50.828;6.080;2023-12-20T05:40:46;17.80;62.20
24144;DHT22;12307;50.828;6.080;2023-12-20T05:43:11;17.80;62.20
24144;DHT22;12307;50.828;6.080;2023-12-20T05:45:37;17.80;63.10
24144;DHT22;12307;50.828;6.080;2023-12-20T05:48:05;17.80;62.20
24144;DHT22;12307;50.828;6.080;2023-12-20T05:50:30;17.80;62.20
24144;DHT22;12307;50.828;6.080;2023-12-20T05:52:56;17.80;62.20
24144;DHT22;12307;50.828;6.080;2023-12-20T05:55:22;17.80;62.20
24144;DHT22;12307;50.828;6.080;2023-12-20T05:57:48;17.80;62.20
24144;DHT22;12307;50.828;6.080;2023-12-20T06:00:14;17.80;62.20
24144;DHT22;12307;50.828;6.080;2023-12-20T06:02:41;17.80;62.20
24144;DHT22;12307;50.828;6.080;2023-12-20T06:05:08;17.80;62.20
24144;DHT22;12307;50.828;6.080;2023-12-20T06:07:34;17.80;62.20
24144;DHT22;12307;50.828;6.080;2023-12-20T06:09:59;17.80;62.20
24144;DHT22;12307;50.828;6.080;2023-12-20T06:12:25;17.80;62.20
24144;DHT22;12307;50.828;6.080;2023-12-20T06:14:52;17.80;62.20
24144;DHT22;12307;50.828;6.080;2023-12-20T06:17:18;17.70;62.10
24144;DHT22;12307;50.828;6.080;2023-12-20T06:19:44;17.70;62.10
24144;DHT22;12307;50.828;6.080;2023-12-20T06:22:14;17.80;62.20
24144;DHT22;12307;50.828;6.080;2023-12-20T06:24:40;17.80;62.20
24144;DHT22;12307;50.828;6.080;2023-12-20T06:27:06;17.70;62.30
24144;DHT22;12307;50.828;6.080;2023-12-20T06:29:31;17.70;62.10
24144;DHT22;12307;50.828;6.080;2023-12-20T06:31:57;17.70;62.10
24144;DHT22;12307;50.828;6.080;2023-12-20T06:34:23;17.70;62.10
24144;DHT22;12307;50.828;6.080;2023-12-20T06:36:49;17.70;62.10
24144;DHT22;12307;50.828;6.080;2023-12-20T06:39:16;17.70;62.10
24144;DHT22;12307;50.828;6.080;2023-12-20T06:41:41;17.70;62.10
24144;DHT22;12307;50.828;6.080;2023-12-20T06:44:08;17.70;62.10
24144;DHT22;12307;50.828;6.080;2023-12-20T06:46:36;17.70;62.20
24144;DHT22;12307;50.828;6.080;2023-12-20T06:49:02;17.70;62.10
24144;DHT22;12307;50.828;6.080;2023-12-20T06:51:28;17.70;62.10
24144;DHT22;12307;50.828;6.080;2023-12-20T06:53:53;17.80;62.10
24144;DHT22;12307;50.828;6.080;2023-12-20T06:56:21;17.70;62.10
24144;DHT22;12307;50.828;6.080;2023-12-20T06:58:46;17.70;62.10
24144;DHT22;12307;50.828;6.080;2023-12-20T07:01:13;17.80;62.10
24144;DHT22;12307;50.828;6.080;2023-12-20T07:03:39;17.70;62.10
24144;DHT22;12307;50.828;6.080;2023-12-20T07:06:05;17.70;62.10
24144;DHT22;12307;50.828;6.080;2023-12-20T07:08:31;17.70;62.10
24144;DHT22;12307;50.828;6.080;2023-12-20T07:10:57;17.70;62.20
24144;DHT22;12307;50.828;6.080;2023-12-20T07:13:24;17.70;62.20
24144;DHT22;12307;50.828;6.080;2023-12-20T07:15:50;17.70;62.30
24144;DHT22;12307;50.828;6.080;2023-12-20T07:18:16;17.70;62.30
24144;DHT22;12307;50.828;6.080;2023-12-20T07:20:42;17.70;62.30
24144;DHT22;12307;50.828;6.080;2023-12-20T07:23:08;17.70;62.30
24144;DHT22;12307;50.828;6.080;2023-12-20T07:25:34;17.70;62.30
24144;DHT22;12307;50.828;6.080;2023-12-20T07:28:00;17.70;62.40
24144;DHT22;12307;50.828;6.080;2023-12-20T07:30:27;17.70;63.30
24144;DHT22;12307;50.828;6.080;2023-12-20T07:32:53;17.70;62.50
24144;DHT22;12307;50.828;6.080;2023-12-20T07:35:19;17.70;62.50
24144;DHT22;12307;50.828;6.080;2023-12-20T07:37:44;17.70;62.60
24144;DHT22;12307;50.828;6.080;2023-12-20T07:40:10;17.70;62.60
24144;DHT22;12307;50.828;6.080;2023-12-20T07:42:36;17.70;62.60
24144;DHT22;12307;50.828;6.080;2023-12-20T07:45:03;17.70;62.60
24144;DHT22;12307;50.828;6.080;2023-12-20T07:47:30;17.70;62.70
24144;DHT22;12307;50.828;6.080;2023-12-20T07:49:56;17.70;62.70
24144;DHT22;12307;50.828;6.080;2023-12-20T07:52:21;17.70;62.70
24144;DHT22;12307;50.828;6.080;2023-12-20T07:54:48;17.70;62.70
24144;DHT22;12307;50.828;6.080;2023-12-20T07:57:13;17.70;62.70
24144;DHT22;12307;50.828;6.080;2023-12-20T07:59:39;17.70;62.60
24144;DHT22;12307;50.828;6.080;2023-12-20T08:02:05;17.70;62.60
24144;DHT22;12307;50.828;6.080;2023-12-20T08:04:33;17.70;62.60
24144;DHT22;12307;50.828;6.080;2023-12-20T08:06:58;17.70;62.70
24144;DHT22;12307;50.828;6.080;2023-12-20T08:09:25;17.70;62.80
24144;DHT22;12307;50.828;6.080;2023-12-20T08:11:51;17.70;62.80
24144;DHT22;12307;50.828;6.080;2023-12-20T08:14:17;17.70;63.00
24144;DHT22;12307;50.828;6.080;2023-12-20T08:16:42;17.70;63.10
24144;DHT22;12307;50.828;6.080;2023-12-20T08:19:08;17.70;63.20
24144;DHT22;12307;50.828;6.080;2023-12-20T08:21:35;17.70;63.20
24144;DHT22;12307;50.828;6.080;2023-12-20T08:24:01;17.70;63.20
24144;DHT22;12307;50.828;6.080;2023-12-20T08:26:26;17.70;63.50
24144;DHT22;12307;50.828;6.080;2023-12-20T08:28:52;17.70;63.40
24144;DHT22;12307;50.828;6.080;2023-12-20T08:31:19;17.70;63.40
24144;DHT22;12307;50.828;6.080;2023-12-20T08:33:45;17.70;63.40
24144;DHT22;12307;50.828;6.080;2023-12-20T08:36:11;17.70;63.40
24144;DHT22;12307;50.828;6.080;2023-12-20T08:38:39;17.70;63.40
24144;DHT22;12307;50.828;6.080;2023-12-20T08:41:05;17.70;63.40
24144;DHT22;12307;50.828;6.080;2023-12-20T08:43:31;17.70;63.40
24144;DHT22;12307;50.828;6.080;2023-12-20T08:45:56;17.70;63.50
24144;DHT22;12307;50.828;6.080;2023-12-20T08:48:22;17.70;63.60
24144;DHT22;12307;50.828;6.080;2023-12-20T08:50:48;17.70;63.60
24144;DHT22;12307;50.828;6.080;2023-12-20T08:53:15;17.70;63.60
24144;DHT22;12307;50.828;6.080;2023-12-20T08:55:43;17.70;63.60
24144;DHT22;12307;50.828;6.080;2023-12-20T08:58:09;17.70;63.70
24144;DHT22;12307;50.828;6.080;2023-12-20T09:00:35;17.70;63.80
24144;DHT22;12307;50.828;6.080;2023-12-20T09:03:01;17.70;63.80
24144;DHT22;12307;50.828;6.080;2023-12-20T09:05:27;17.70;63.80
24144;DHT22;12307;50.828;6.080;2023-12-20T09:07:53;17.70;63.60
24144;DHT22;12307;50.828;6.080;2023-12-20T09:10:19;17.70;63.50
24144;DHT22;12307;50.828;6.080;2023-12-20T09:12:50;17.70;63.40
24144;DHT22;12307;50.828;6.080;2023-12-20T09:15:16;17.70;63.40
24144;DHT22;12307;50.828;6.080;2023-12-20T09:17:42;17.70;63.40
24144;DHT22;12307;50.828;6.080;2023-12-20T09:20:09;17.70;63.50
24144;DHT22;12307;50.828;6.080;2023-12-20T09:22:35;17.70;63.60
24144;DHT22;12307;50.828;6.080;2023-12-20T09:25:01;17.70;63.60
24144;DHT22;12307;50.828;6.080;2023-12-20T09:27:29;17.70;63.70
24144;DHT22;12307;50.828;6.080;2023-12-20T09:29:57;17.80;63.80
24144;DHT22;12307;50.828;6.080;2023-12-20T09:32:22;17.70;63.90
24144;DHT22;12307;50.828;6.080;2023-12-20T09:34:48;17.80;64.00
24144;DHT22;12307;50.828;6.080;2023-12-20T09:37:14;17.80;64.10
24144;DHT22;12307;50.828;6.080;2023-12-20T09:39:39;17.80;64.10
24144;DHT22;12307;50.828;6.080;2023-12-20T09:42:06;17.80;64.10
24144;DHT22;12307;50.828;6.080;2023-12-20T09:44:33;17.80;64.20
24144;DHT22;12307;50.828;6.080;2023-12-20T09:47:05;17.80;64.20
24144;DHT22;12307;50.828;6.080;2023-12-20T09:49:30;17.80;64.20
24144;DHT22;12307;50.828;6.080;2023-12-20T09:51:58;17.90;64.20
24144;DHT22;12307;50.828;6.080;2023-12-20T09:54:26;17.90;64.20
24144;DHT22;12307;50.828;6.080;2023-12-20T09:56:52;17.90;64.20
24144;DHT22;12307;50.828;6.080;2023-12-20T09:59:18;18.00;64.20
24144;DHT22;12307;50.828;6.080;2023-12-20T10:01:43;18.00;64.20
24144;DHT22;12307;50.828;6.080;2023-12-20T10:04:12;18.00;64.00
24144;DHT22;12307;50.828;6.080;2023-12-20T10:06:39;18.00;64.00
24144;DHT22;12307;50.828;6.080;2023-12-20T10:09:04;18.00;64.00
24144;DHT22;12307;50.828;6.080;2023-12-20T10:11:31;18.00;63.90
24144;DHT22;12307;50.828;6.080;2023-12-20T10:13:59;18.00;63.90
24144;DHT22;12307;50.828;6.080;2023-12-20T10:16:28;18.00;63.70
24144;DHT22;12307;50.828;6.080;2023-12-20T10:18:54;18.00;63.70
24144;DHT22;12307;50.828;6.080;2023-12-20T10:21:22;18.00;63.60
24144;DHT22;12307;50.828;6.080;2023-12-20T10:23:48;18.00;63.60
24144;DHT22;12307;50.828;6.080;2023-12-20T10:26:19;18.00;63.50
24144;DHT22;12307;50.828;6.080;2023-12-20T10:28:45;18.00;63.40
24144;DHT22;12307;50.828;6.080;2023-12-20T10:31:10;18.00;63.50
24144;DHT22;12307;50.828;6.080;2023-12-20T10:33:50;18.00;63.50
24144;DHT22;12307;50.828;6.080;2023-12-20T10:36:16;18.00;63.50
24144;DHT22;12307;50.828;6.080;2023-12-20T10:38:44;18.00;63.50
24144;DHT22;12307;50.828;6.080;2023-12-20T10:41:12;18.00;64.30
24144;DHT22;12307;50.828;6.080;2023-12-20T10:43:42;18.00;63.40
24144;DHT22;12307;50.828;6.080;2023-12-20T10:46:08;18.00;63.40
24144;DHT22;12307;50.828;6.080;2023-12-20T10:48:34;18.00;63.40
24144;DHT22;12307;50.828;6.080;2023-12-20T10:51:01;18.00;63.50
24144;DHT22;12307;50.828;6.080;2023-12-20T10:53:27;18.00;63.50
24144;DHT22;12307;50.828;6.080;2023-12-20T10:55:56;18.00;63.60
24144;DHT22;12307;50.828;6.080;2023-12-20T10:58:26;17.90;63.50
24144;DHT22;12307;50.828;6.080;2023-12-20T11:00:57;18.00;63.60
24144;DHT22;12307;50.828;6.080;2023-12-20T11:03:27;17.90;63.50
24144;DHT22;12307;50.828;6.080;2023-12-20T11:05:59;17.90;63.50
24144;DHT22;12307;50.828;6.080;2023-12-20T11:08:33;17.90;63.50
24144;DHT22;12307;50.828;6.080;2023-12-20T11:11:07;17.90;63.50
24144;DHT22;12307;50.828;6.080;2023-12-20T11:13:40;17.90;63.50
24144;DHT22;12307;50.828;6.080;2023-12-20T11:16:06;17.90;63.50
24144;DHT22;12307;50.828;6.080;2023-12-20T11:18:33;17.90;63.50
24144;DHT22;12307;50.828;6.080;2023-12-20T11:21:01;17.90;63.50
24144;DHT22;12307;50.828;6.080;2023-12-20T11:23:29;17.90;63.50
24144;DHT22;12307;50.828;6.080;2023-12-20T11:25:56;17.90;63.40
24144;DHT22;12307;50.828;6.080;2023-12-20T11:28:27;17.90;63.40
24144;DHT22;12307;50.828;6.080;2023-12-20T11:30:53;17.90;63.40
24144;DHT22;12307;50.828;6.080;2023-12-20T11:33:23;17.90;63.40
24144;DHT22;12307;50.828;6.080;2023-12-20T11:35:49;17.90;63.30
24144;DHT22;12307;50.828;6.080;2023-12-20T11:38:15;17.90;63.30
24144;DHT22;12307;50.828;6.080;2023-12-20T11:40:42;17.90;63.20
24144;DHT22;12307;50.828;6.080;2023-12-20T11:43:08;17.90;63.20
24144;DHT22;12307;50.828;6.080;2023-12-20T11:45:35;17.90;63.10
24144;DHT22;12307;50.828;6.080;2023-12-20T11:48:02;17.90;63.10
24144;DHT22;12307;50.828;6.080;2023-12-20T11:50:28;17.90;63.10
24144;DHT22;12307;50.828;6.080;2023-12-20T11:52:55;17.90;63.10
24144;DHT22;12307;50.828;6.080;2023-12-20T11:55:21;17.90;63.10
24144;DHT22;12307;50.828;6.080;2023-12-20T11:57:47;17.90;63.00
24144;DHT22;12307;50.828;6.080;2023-12-20T12:00:14;17.90;62.90
24144;DHT22;12307;50.828;6.080;2023-12-20T12:02:41;17.90;62.90
24144;DHT22;12307;50.828;6.080;2023-12-20T12:05:07;17.90;62.90
24144;DHT22;12307;50.828;6.080;2023-12-20T12:07:33;17.90;62.90
24144;DHT22;12307;50.828;6.080;2023-12-20T12:09:59;17.90;62.90
24144;DHT22;12307;50.828;6.080;2023-12-20T12:12:25;17.90;62.90
24144;DHT22;12307;50.828;6.080;2023-12-20T12:14:52;17.90;62.80
24144;DHT22;12307;50.828;6.080;2023-12-20T12:17:18;17.90;62.70
24144;DHT22;12307;50.828;6.080;2023-12-20T12:19:45;17.90;62.60
24144;DHT22;12307;50.828;6.080;2023-12-20T12:22:13;17.90;62.60
24144;DHT22;12307;50.828;6.080;2023-12-20T12:24:39;17.90;62.50
24144;DHT22;12307;50.828;6.080;2023-12-20T12:27:06;17.90;62.50
24144;DHT22;12307;50.828;6.080;2023-12-20T12:29:32;17.90;62.40
24144;DHT22;12307;50.828;6.080;2023-12-20T12:31:58;17.90;62.40
24144;DHT22;12307;50.828;6.080;2023-12-20T12:34:24;17.90;62.30
24144;DHT22;12307;50.828;6.080;2023-12-20T12:36:51;17.90;62.30
24144;DHT22;12307;50.828;6.080;2023-12-20T12:39:18;17.90;62.30
24144;DHT22;12307;50.828;6.080;2023-12-20T12:41:43;17.90;62.20
24144;DHT22;12307;50.828;6.080;2023-12-20T12:44:09;17.90;62.20
24144;DHT22;12307;50.828;6.080;2023-12-20T12:46:35;17.90;62.20
24144;DHT22;12307;50.828;6.080;2023-12-20T12:49:01;17.90;62.20
24144;DHT22;12307;50.828;6.080;2023-12-20T12:51:26;17.90;62.20
24144;DHT22;12307;50.828;6.080;2023-12-20T12:53:53;18.00;62.20
24144;DHT22;12307;50.828;6.080;2023-12-20T12:56:19;17.90;62.20
24144;DHT22;12307;50.828;6.080;2023-12-20T12:58:45;17.90;62.10
24144;DHT22;12307;50.828;6.080;2023-12-20T13:01:11;18.00;62.10
24144;DHT22;12307;50.828;6.080;2023-12-20T13:03:37;17.90;62.10
24144;DHT22;12307;50.828;6.080;2023-12-20T13:06:03;17.90;62.00
24144;DHT22;12307;50.828;6.080;2023-12-20T13:08:31;18.00;62.10
24144;DHT22;12307;50.828;6.080;2023-12-20T13:10:58;18.00;62.10
24144;DHT22;12307;50.828;6.080;2023-12-20T13:13:26;17.90;61.90
24144;DHT22;12307;50.828;6.080;2023-12-20T13:15:51;18.00;62.10
24144;DHT22;12307;50.828;6.080;2023-12-20T13:18:20;18.00;62.90
24144;DHT22;12307;50.828;6.080;2023-12-20T13:20:46;18.00;62.10
24144;DHT22;12307;50.828;6.080;2023-12-20T13:23:12;17.90;62.10
24144;DHT22;12307;50.828;6.080;2023-12-20T13:25:37;18.00;62.20
24144;DHT22;12307;50.828;6.080;2023-12-20T13:28:05;18.00;62.30
24144;DHT22;12307;50.828;6.080;2023-12-20T13:30:31;18.00;62.30
24144;DHT22;12307;50.828;6.080;2023-12-20T13:32:57;18.00;62.30
24144;DHT22;12307;50.828;6.080;2023-12-20T13:35:23;18.00;62.40
24144;DHT22;12307;50.828;6.080;2023-12-20T13:37:48;18.00;62.40
24144;DHT22;12307;50.828;6.080;2023-12-20T13:40:14;18.00;62.40
24144;DHT22;12307;50.828;6.080;2023-12-20T13:42:40;18.00;62.60
24144;DHT22;12307;50.828;6.080;2023-12-20T13:45:08;18.00;62.60
24144;DHT22;12307;50.828;6.080;2023-12-20T13:47:34;18.00;62.60
24144;DHT22;12307;50.828;6.080;2023-12-20T13:50:00;18.00;62.60
24144;DHT22;12307;50.828;6.080;2023-12-20T13:52:26;18.00;62.60
24144;DHT22;12307;50.828;6.080;2023-12-20T13:54:52;18.00;62.70
24144;DHT22;12307;50.828;6.080;2023-12-20T13:57:18;18.00;62.80
24144;DHT22;12307;50.828;6.080;2023-12-20T13:59:43;18.00;62.80
24144;DHT22;12307;50.828;6.080;2023-12-20T14:02:11;18.00;62.90
24144;DHT22;12307;50.828;6.080;2023-12-20T14:04:37;18.00;63.00
24144;DHT22;12307;50.828;6.080;2023-12-20T14:07:04;18.00;63.00
24144;DHT22;12307;50.828;6.080;2023-12-20T14:09:30;18.10;63.10
24144;DHT22;12307;50.828;6.080;2023-12-20T14:11:56;18.10;63.10
24144;DHT22;12307;50.828;6.080;2023-12-20T14:14:21;18.10;63.20
24144;DHT22;12307;50.828;6.080;2023-12-20T14:16:47;18.10;63.20
24144;DHT22;12307;50.828;6.080;2023-12-20T14:19:14;18.10;63.20
24144;DHT22;12307;50.828;6.080;2023-12-20T14:21:40;18.10;63.30
24144;DHT22;12307;50.828;6.080;2023-12-20T14:24:06;18.20;63.40
24144;DHT22;12307;50.828;6.080;2023-12-20T14:26:32;18.10;63.40
24144;DHT22;12307;50.828;6.080;2023-12-20T14:28:57;18.20;63.60
24144;DHT22;12307;50.828;6.080;2023-12-20T14:31:23;18.20;63.60
24144;DHT22;12307;50.828;6.080;2023-12-20T14:33:50;18.20;63.60
24144;DHT22;12307;50.828;6.080;2023-12-20T14:36:20;18.20;63.60
24144;DHT22;12307;50.828;6.080;2023-12-20T14:38:46;18.20;63.60
24144;DHT22;12307;50.828;6.080;2023-12-20T14:41:15;18.20;63.60
24144;DHT22;12307;50.828;6.080;2023-12-20T14:43:42;18.20;63.60
24144;DHT22;12307;50.828;6.080;2023-12-20T14:46:08;18.20;63.60
24144;DHT22;12307;50.828;6.080;2023-12-20T14:48:34;18.20;63.60
24144;DHT22;12307;50.828;6.080;2023-12-20T14:51:00;18.10;63.50
24144;DHT22;12307;50.828;6.080;2023-12-20T14:53:27;18.10;63.40
24144;DHT22;12307;50.828;6.080;2023-12-20T14:55:53;18.10;63.50
24144;DHT22;12307;50.828;6.080;2023-12-20T14:58:19;18.10;63.40
24144;DHT22;12307;50.828;6.080;2023-12-20T15:00:44;18.10;63.50
24144;DHT22;12307;50.828;6.080;2023-12-20T15:03:10;18.10;63.50
24144;DHT22;12307;50.828;6.080;2023-12-20T15:05:36;18.10;63.60
24144;DHT22;12307;50.828;6.080;2023-12-20T15:08:02;18.10;63.60
24144;DHT22;12307;50.828;6.080;2023-12-20T15:10:29;18.10;63.50
24144;DHT22;12307;50.828;6.080;2023-12-20T15:12:56;18.00;63.40
24144;DHT22;12307;50.828;6.080;2023-12-20T15:15:21;18.00;63.40
24144;DHT22;12307;50.828;6.080;2023-12-20T15:17:47;18.10;63.40
24144;DHT22;12307;50.828;6.080;2023-12-20T15:20:13;18.00;63.40
24144;DHT22;12307;50.828;6.080;2023-12-20T15:22:39;18.00;63.40
24144;DHT22;12307;50.828;6.080;2023-12-20T15:25:07;18.00;63.40